Time;durP1;ratioP1;P1;durP2;ratioP2;P2;SDS_P1;SDS_P2;PMS_P1;PMS_P2;Temp;Humidity;BMP_temperature;BMP_pressure;BME280_temperature;BME280_humidity;BME280_pressure;Samples;Min_cycle;Max_cycle;Signal;HPM_P1;HPM_P2
2023/07/06 00:01:48;;;;;;;6.38;2.50;;;12.90;99.90;;;;;;4961759;28;20062;-36
2023/07/06 00:04:14;;;;;;;4.95;2.40;;;12.80;99.90;;;;;;4967418;28;20055;-36
2023/07/06 00:06:40;;;;;;;4.63;2.00;;;12.80;99.90;;;;;;4957744;28;20129;-36
2023/07/06 00:09:05;;;;;;;4.13;2.53;;;12.80;99.90;;;;;;4967491;28;20129;-36
2023/07/06 00:11:39;;;;;;;4.53;2.25;;;12.70;99.90;;;;;;4966525;28;20058;-36
2023/07/06 00:14:07;;;;;;;4.57;2.42;;;12.70;99.90;;;;;;4977111;28;20050;-36
2023/07/06 00:16:34;;;;;;;4.82;2.20;;;12.60;99.90;;;;;;4966657;28;20109;-36
2023/07/06 00:19:00;;;;;;;4.65;2.08;;;12.60;99.90;;;;;;4967320;28;20078;-36
2023/07/06 00:21:29;;;;;;;4.60;2.25;;;12.50;99.90;;;;;;4968894;28;20058;-36
2023/07/06 00:23:57;;;;;;;3.85;2.28;;;12.50;99.90;;;;;;4965992;28;20471;-36
2023/07/06 00:26:23;;;;;;;4.30;2.10;;;12.50;99.90;;;;;;4967606;28;20991;-35
2023/07/06 00:28:49;;;;;;;4.53;2.72;;;12.50;99.90;;;;;;4967746;28;20143;-36
2023/07/06 00:31:21;;;;;;;3.90;2.20;;;12.40;99.90;;;;;;4967405;28;20079;-36
2023/07/06 00:33:48;;;;;;;6.25;2.53;;;12.40;99.90;;;;;;4966076;28;20063;-36
2023/07/06 00:36:15;;;;;;;4.50;2.50;;;12.40;99.90;;;;;;4966566;28;20054;-36
2023/07/06 00:38:41;;;;;;;5.30;2.20;;;12.30;99.90;;;;;;4966292;28;20061;-36
2023/07/06 00:41:08;;;;;;;5.07;2.90;;;12.30;99.90;;;;;;4966182;28;20134;-36
2023/07/06 00:43:52;;;;;;;7.70;3.45;;;12.30;99.90;;;;;;4965890;28;20054;-36
2023/07/06 00:46:19;;;;;;;5.57;2.80;;;12.30;99.90;;;;;;4976138;28;20556;-36
2023/07/06 00:48:48;;;;;;;5.60;2.42;;;12.20;99.90;;;;;;4965006;28;20056;-35
2023/07/06 00:51:16;;;;;;;6.20;2.60;;;12.20;99.90;;;;;;4969067;28;20559;-36
2023/07/06 00:53:46;;;;;;;7.22;2.90;;;12.20;99.90;;;;;;4966098;28;20062;-36
2023/07/06 00:56:17;;;;;;;6.35;2.75;;;12.20;99.90;;;;;;4967168;28;20050;-36
2023/07/06 00:58:45;;;;;;;4.53;3.05;;;12.20;99.90;;;;;;4965056;28;20515;-36
2023/07/06 01:01:15;;;;;;;7.30;2.75;;;12.10;99.90;;;;;;4966504;28;20516;-36
2023/07/06 01:03:44;;;;;;;7.05;2.97;;;12.10;99.90;;;;;;4965519;28;20133;-34
2023/07/06 01:06:29;;;;;;;7.25;2.80;;;12.10;99.90;;;;;;4977993;28;20057;-36
2023/07/06 01:08:57;;;;;;;4.13;2.42;;;12.10;99.90;;;;;;4962360;28;20090;-34
2023/07/06 01:11:23;;;;;;;6.18;2.88;;;12.10;99.90;;;;;;4980188;28;20492;-36
2023/07/06 01:13:51;;;;;;;4.63;2.70;;;12.10;99.90;;;;;;4974999;28;20508;-34
2023/07/06 01:16:36;;;;;;;5.30;2.80;;;12.10;99.90;;;;;;4963901;28;20054;-35
2023/07/06 01:19:12;;;;;;;5.43;2.50;;;12.10;99.90;;;;;;4969932;28;20153;-35
2023/07/06 01:21:48;;;;;;;6.13;3.00;;;12.10;99.90;;;;;;4981652;28;20065;-35
2023/07/06 01:24:14;;;;;;;5.78;3.13;;;12.10;99.90;;;;;;4980808;28;20046;-35
2023/07/06 01:26:45;;;;;;;4.28;2.75;;;12.20;99.90;;;;;;4984624;28;20050;-34
2023/07/06 01:29:41;;;;;;;5.57;2.70;;;12.20;99.90;;;;;;4976963;28;20054;-34
2023/07/06 01:32:14;;;;;;;6.15;3.55;;;12.20;99.90;;;;;;4962392;28;20058;-35
2023/07/06 01:34:45;;;;;;;7.25;3.38;;;12.20;99.90;;;;;;4964594;28;20051;-35
2023/07/06 01:37:32;;;;;;;6.18;2.90;;;12.20;99.90;;;;;;4958780;28;20054;-35
2023/07/06 01:39:58;;;;;;;6.70;3.20;;;12.10;99.90;;;;;;4963515;28;20140;-35
2023/07/06 01:42:29;;;;;;;6.68;3.13;;;12.10;99.90;;;;;;4980219;28;20054;-35
2023/07/06 01:45:08;;;;;;;7.25;3.35;;;12.10;99.90;;;;;;4983772;28;20054;-35
2023/07/06 01:47:39;;;;;;;5.75;2.97;;;12.10;99.90;;;;;;4981744;28;20054;-35
2023/07/06 01:50:09;;;;;;;5.95;2.80;;;12.20;99.90;;;;;;4971541;28;20493;-35
2023/07/06 01:52:54;;;;;;;5.78;2.72;;;12.20;99.90;;;;;;4965106;28;20497;-35
2023/07/06 01:55:37;;;;;;;8.27;3.53;;;12.20;99.90;;;;;;4962145;28;20543;-35
2023/07/06 01:58:09;;;;;;;;;;;12.20;99.90;;;;;;4976332;28;20078;-35
2023/07/06 02:00:39;;;;;;;9.40;2.95;;;12.30;99.90;;;;;;4981913;28;19944;-35
2023/07/06 02:03:06;;;;;;;7.82;2.80;;;12.20;99.90;;;;;;4982849;28;20468;-35
2023/07/06 02:05:36;;;;;;;7.30;3.30;;;12.20;99.90;;;;;;4971300;28;20055;-35
2023/07/06 02:08:05;;;;;;;7.80;3.00;;;12.30;99.90;;;;;;4960768;28;20047;-35
2023/07/06 02:10:30;;;;;;;5.93;2.95;;;12.30;99.90;;;;;;4962005;28;20063;-36
2023/07/06 02:12:57;;;;;;;8.30;3.90;;;12.30;99.90;;;;;;4966147;28;20055;-35
2023/07/06 02:15:23;;;;;;;6.45;3.15;;;12.30;99.90;;;;;;4979912;28;20099;-35
2023/07/06 02:17:55;;;;;;;6.80;3.83;;;12.30;99.90;;;;;;4971550;28;20070;-35
2023/07/06 02:20:20;;;;;;;7.47;3.35;;;12.40;99.90;;;;;;4971199;28;20042;-35
2023/07/06 02:22:47;;;;;;;6.28;3.33;;;12.40;99.90;;;;;;4983781;28;20459;-35
2023/07/06 02:25:13;;;;;;;6.45;3.42;;;12.40;99.90;;;;;;4968802;28;20452;-35
2023/07/06 02:27:38;;;;;;;6.97;3.25;;;12.40;99.90;;;;;;4961282;28;20059;-35
2023/07/06 02:30:05;;;;;;;7.28;3.75;;;12.40;99.90;;;;;;4965161;28;20051;-35
2023/07/06 02:32:32;;;;;;;5.72;3.10;;;12.50;99.90;;;;;;4959367;28;20066;-35
2023/07/06 02:34:58;;;;;;;5.50;2.67;;;12.50;99.90;;;;;;4964759;28;20488;-35
2023/07/06 02:37:25;;;;;;;6.63;3.17;;;12.50;99.90;;;;;;4961905;28;20051;-34
2023/07/06 02:39:51;;;;;;;9.82;4.10;;;12.50;99.90;;;;;;4978396;28;22791;-35
2023/07/06 02:42:18;;;;;;;8.23;3.28;;;12.50;99.90;;;;;;4972548;28;20046;-34
2023/07/06 02:44:44;;;;;;;5.63;3.22;;;12.50;99.90;;;;;;4970340;28;20042;-35
2023/07/06 02:47:10;;;;;;;6.60;3.00;;;12.50;99.90;;;;;;4963255;28;20053;-35
2023/07/06 02:49:36;;;;;;;5.05;2.40;;;12.50;99.90;;;;;;4944651;28;20473;-35
2023/07/06 02:52:02;;;;;;;7.90;2.90;;;12.50;99.90;;;;;;4957606;28;20047;-35
2023/07/06 02:54:28;;;;;;;6.45;2.53;;;12.60;99.90;;;;;;4963756;28;20067;-35
2023/07/06 02:57:00;;;;;;;6.10;2.92;;;12.60;99.90;;;;;;4962925;28;20134;-35
2023/07/06 02:59:27;;;;;;;6.88;2.85;;;12.60;99.90;;;;;;4962202;28;20075;-35
2023/07/06 03:01:52;;;;;;;5.65;2.85;;;12.60;99.90;;;;;;4982371;28;20058;-35
2023/07/06 03:04:19;;;;;;;7.38;3.25;;;12.60;99.90;;;;;;4980291;28;20404;-35
2023/07/06 03:06:45;;;;;;;6.03;2.90;;;12.60;99.90;;;;;;4976721;28;20078;-35
2023/07/06 03:09:11;;;;;;;8.23;3.03;;;12.70;99.90;;;;;;4962749;28;20046;-35
2023/07/06 03:11:37;;;;;;;4.85;2.28;;;12.70;99.90;;;;;;4970241;28;20050;-35
2023/07/06 03:14:04;;;;;;;6.75;3.10;;;12.70;99.90;;;;;;4963158;28;20069;-35
2023/07/06 03:16:39;;;;;;;5.07;2.88;;;12.70;99.90;;;;;;4969312;28;20200;-35
2023/07/06 03:19:06;;;;;;;5.75;3.03;;;12.70;99.90;;;;;;4959765;28;20071;-35
2023/07/06 03:21:33;;;;;;;4.97;2.42;;;12.70;99.90;;;;;;4958165;28;20054;-35
2023/07/06 03:23:58;;;;;;;4.80;2.25;;;12.70;99.90;;;;;;4961030;28;20408;-35
2023/07/06 03:26:24;;;;;;;8.10;3.00;;;12.80;99.90;;;;;;4961800;28;20050;-35
2023/07/06 03:28:50;;;;;;;7.90;3.05;;;12.70;99.90;;;;;;4977019;28;20058;-35
2023/07/06 03:31:16;;;;;;;7.43;2.42;;;12.80;99.90;;;;;;4961745;28;20575;-35
2023/07/06 03:33:42;;;;;;;7.90;3.30;;;12.80;99.90;;;;;;4959799;28;20058;-35
2023/07/06 03:36:08;;;;;;;7.95;3.67;;;12.80;99.90;;;;;;4964286;28;20046;-35
2023/07/06 03:38:36;;;;;;;7.80;3.22;;;12.80;99.90;;;;;;4966594;28;20084;-35
2023/07/06 03:41:03;;;;;;;7.28;2.75;;;12.80;99.90;;;;;;4962592;28;20085;-35
2023/07/06 03:43:29;;;;;;;7.63;3.38;;;12.90;99.90;;;;;;4960148;28;20074;-35
2023/07/06 03:45:55;;;;;;;8.70;4.18;;;12.90;99.90;;;;;;4964939;28;20106;-35
2023/07/06 03:48:21;;;;;;;7.47;3.17;;;;;;;;;;4965042;28;20055;-35
2023/07/06 03:50:52;;;;;;;9.18;3.40;;;;;;;;;;4966041;28;21017;-35
2023/07/06 03:53:19;;;;;;;6.05;2.90;;;;;;;;;;4976238;28;20054;-35
2023/07/06 03:55:45;;;;;;;7.97;3.50;;;13.80;99.90;;;;;;4969983;28;20054;-35
2023/07/06 03:58:10;;;;;;;6.85;3.50;;;13.10;99.90;;;;;;4961823;28;20121;-35
2023/07/06 04:00:37;;;;;;;6.60;2.95;;;13.00;99.90;;;;;;4960457;28;20109;-35
2023/07/06 04:03:04;;;;;;;6.13;3.25;;;;;;;;;;4956843;28;20067;-35
2023/07/06 04:05:32;;;;;;;8.43;3.17;;;;;;;;;;4963925;28;20548;-35
2023/07/06 04:07:59;;;;;;;7.68;2.50;;;;;;;;;;4965219;28;20133;-35
2023/07/06 04:10:27;;;;;;;6.68;2.63;;;;;;;;;;4979391;28;20056;-35
2023/07/06 04:12:53;;;;;;;8.43;3.50;;;13.00;99.90;;;;;;4980933;28;20124;-35
2023/07/06 04:15:18;;;;;;;7.68;2.83;;;13.00;99.90;;;;;;4962228;28;20516;-34
2023/07/06 04:17:47;;;;;;;7.18;3.10;;;13.00;99.90;;;;;;4980141;28;20061;-34
2023/07/06 04:20:22;;;;;;;6.53;3.05;;;13.00;99.90;;;;;;4983010;28;20039;-34
2023/07/06 04:22:49;;;;;;;10.75;3.20;;;13.00;99.90;;;;;;4981196;28;20046;-34
2023/07/06 04:25:19;;;;;;;6.82;3.20;;;13.00;99.90;;;;;;4979794;28;20046;-34
2023/07/06 04:27:46;;;;;;;10.35;3.10;;;13.00;99.90;;;;;;4982006;28;20051;-34
2023/07/06 04:30:14;;;;;;;10.82;3.40;;;13.00;99.90;;;;;;4983847;28;20046;-35
2023/07/06 04:32:41;;;;;;;9.90;3.40;;;13.10;99.90;;;;;;4983935;28;20051;-35
2023/07/06 04:35:11;;;;;;;7.60;2.90;;;13.10;99.90;;;;;;4961659;28;20504;-34
2023/07/06 04:37:37;;;;;;;8.70;3.75;;;13.20;99.90;;;;;;4983053;28;23094;-35
2023/07/06 04:40:11;;;;;;;11.48;3.58;;;13.20;99.90;;;;;;4985815;28;20050;-35
2023/07/06 04:42:37;;;;;;;10.95;3.65;;;13.30;99.90;;;;;;4969312;28;20130;-35
2023/07/06 04:45:04;;;;;;;7.47;4.03;;;;;;;;;;4973249;28;20136;-34
2023/07/06 04:47:33;;;;;;;7.63;3.90;;;;;;;;;;4969212;28;20054;-35
2023/07/06 04:49:59;;;;;;;9.90;4.03;;;;;;;;;;4961367;28;20110;-34
2023/07/06 04:52:25;;;;;;;7.30;2.92;;;;;;;;;;4963640;28;21040;-35
2023/07/06 04:54:51;;;;;;;9.73;3.75;;;;;;;;;;4964061;28;20054;-34
2023/07/06 04:57:17;;;;;;;8.50;3.47;;;;;;;;;;4965863;28;20523;-34
2023/07/06 04:59:44;;;;;;;10.45;3.85;;;;;;;;;;4964713;28;20053;-34
2023/07/06 05:02:10;;;;;;;9.25;3.63;;;;;;;;;;4965587;28;20069;-35
2023/07/06 05:04:42;;;;;;;11.40;4.00;;;;;;;;;;4962526;28;20051;-35
2023/07/06 05:07:11;;;;;;;9.88;4.15;;;;;;;;;;4962098;28;20061;-35
2023/07/06 05:09:40;;;;;;;10.65;3.67;;;;;;;;;;4962969;28;20066;-35
2023/07/06 05:12:07;;;;;;;12.27;3.53;;;;;;;;;;4968414;28;20144;-36
2023/07/06 05:14:34;;;;;;;9.35;3.53;;;;;;;;;;4967094;28;20059;-35
2023/07/06 05:17:00;;;;;;;8.63;3.70;;;;;;;;;;4962427;28;20058;-35
2023/07/06 05:19:27;;;;;;;9.80;4.53;;;;;;;;;;4936400;28;20136;-35
2023/07/06 05:21:55;;;;;;;9.40;3.65;;;;;;;;;;4971245;28;20059;-35
2023/07/06 05:24:21;;;;;;;8.88;4.07;;;;;;;;;;4959121;28;20567;-35
2023/07/06 05:26:47;;;;;;;7.13;3.50;;;;;;;;;;4967732;28;20540;-35
2023/07/06 05:29:13;;;;;;;9.88;4.10;;;;;;;;;;4961561;28;20097;-35
2023/07/06 05:31:39;;;;;;;12.30;4.03;;;;;;;;;;4963460;28;20058;-35
2023/07/06 05:34:06;;;;;;;8.40;3.80;;;;;;;;;;4961448;28;20067;-35
2023/07/06 05:36:32;;;;;;;7.47;3.50;;;;;;;;;;4969029;28;20065;-36
2023/07/06 05:38:58;;;;;;;7.45;3.65;;;;;;;;;;4982944;28;20082;-36
2023/07/06 05:41:24;;;;;;;8.27;3.67;;;;;;;;;;4964151;28;20062;-36
2023/07/06 05:43:51;;;;;;;9.23;3.63;;;;;;;;;;4966896;28;20074;-35
2023/07/06 05:46:17;;;;;;;11.68;5.05;;;;;;;;;;4959966;28;20047;-35
2023/07/06 05:48:44;;;;;;;13.80;5.60;;;;;;;;;;4965816;28;20072;-35
2023/07/06 05:51:10;;;;;;;8.02;3.80;;;;;;;;;;4968656;28;20493;-36
2023/07/06 05:53:36;;;;;;;9.32;3.78;;;;;;;;;;4966612;28;20112;-36
2023/07/06 05:56:01;;;;;;;7.00;3.60;;;14.40;99.90;;;;;;4964418;28;20061;-35
2023/07/06 05:58:27;;;;;;;16.80;4.40;;;14.60;99.90;;;;;;4961532;28;20441;-36
2023/07/06 06:00:53;;;;;;;6.82;3.38;;;14.70;99.90;;;;;;4957805;28;20117;-36
2023/07/06 06:03:19;;;;;;;11.07;4.25;;;14.80;99.90;;;;;;4956515;28;20491;-35
2023/07/06 06:05:45;;;;;;;12.82;4.28;;;14.80;99.90;;;;;;4957555;28;20126;-36
2023/07/06 06:08:11;;;;;;;8.85;3.67;;;14.90;99.90;;;;;;4961690;28;20130;-36
2023/07/06 06:10:38;;;;;;;7.97;3.30;;;14.90;99.90;;;;;;4966804;28;20157;-36
2023/07/06 06:13:04;;;;;;;10.18;4.13;;;15.00;99.90;;;;;;4959071;28;20061;-36
2023/07/06 06:15:29;;;;;;;10.43;4.13;;;15.00;99.90;;;;;;4959187;28;20038;-35
2023/07/06 06:17:55;;;;;;;9.27;3.33;;;15.00;99.90;;;;;;4954670;28;20449;-35
2023/07/06 06:20:21;;;;;;;10.38;3.97;;;15.00;99.90;;;;;;4952199;28;20060;-36
2023/07/06 06:22:47;;;;;;;7.97;3.40;;;15.10;99.90;;;;;;4968641;28;20186;-36
2023/07/06 06:25:13;;;;;;;9.52;3.60;;;15.20;99.90;;;;;;4975877;28;20043;-36
2023/07/06 06:27:38;;;;;;;9.02;3.67;;;15.20;99.90;;;;;;4980723;28;20176;-36
2023/07/06 06:30:05;;;;;;;11.77;3.75;;;15.20;99.90;;;;;;4969033;28;20468;-36
2023/07/06 06:32:34;;;;;;;13.93;4.65;;;15.30;99.90;;;;;;4961767;28;20047;-36
2023/07/06 06:35:01;;;;;;;10.18;4.45;;;15.30;99.90;;;;;;4957715;28;20058;-36
2023/07/06 06:37:27;;;;;;;9.45;3.67;;;15.40;99.90;;;;;;4964116;28;20055;-36
2023/07/06 06:39:53;;;;;;;11.13;3.60;;;15.60;99.90;;;;;;4961906;28;20062;-36
2023/07/06 06:42:19;;;;;;;9.90;3.72;;;15.70;99.90;;;;;;4960943;28;20070;-36
2023/07/06 06:44:45;;;;;;;9.23;3.50;;;15.80;99.90;;;;;;4966191;28;20067;-35
2023/07/06 06:47:11;;;;;;;7.28;3.38;;;15.90;99.90;;;;;;4976438;28;20065;-36
2023/07/06 06:49:36;;;;;;;11.85;4.25;;;16.00;99.90;;;;;;4962975;28;20134;-36
2023/07/06 06:52:03;;;;;;;8.48;4.55;;;16.00;99.90;;;;;;4966446;28;20440;-36
2023/07/06 06:54:30;;;;;;;11.40;3.72;;;16.00;99.90;;;;;;4974347;28;20504;-36
2023/07/06 06:56:56;;;;;;;12.57;4.25;;;16.10;99.90;;;;;;4962386;28;20042;-36
2023/07/06 06:59:22;;;;;;;10.07;4.07;;;16.20;99.90;;;;;;4960501;28;20141;-36
2023/07/06 07:01:50;;;;;;;8.95;3.45;;;16.30;99.90;;;;;;4963056;28;20440;-35
2023/07/06 07:04:16;;;;;;;8.55;3.58;;;16.30;99.90;;;;;;4970122;28;20053;-35
2023/07/06 07:06:42;;;;;;;9.85;3.40;;;16.40;99.90;;;;;;4982500;28;20050;-35
2023/07/06 07:09:12;;;;;;;9.25;3.60;;;16.60;99.90;;;;;;4980266;28;20100;-35
2023/07/06 07:11:38;;;;;;;11.05;3.33;;;16.70;99.90;;;;;;4968562;28;20051;-35
2023/07/06 07:14:07;;;;;;;11.10;3.55;;;16.80;99.90;;;;;;4949820;28;20058;-35
2023/07/06 07:16:34;;;;;;;7.93;3.78;;;16.90;99.90;;;;;;4976395;28;20051;-35
2023/07/06 07:19:04;;;;;;;8.60;3.35;;;17.00;99.90;;;;;;4959797;28;20063;-36
2023/07/06 07:21:29;;;;;;;10.55;3.42;;;17.10;99.90;;;;;;4954011;28;20150;-36
2023/07/06 07:23:55;;;;;;;12.35;4.32;;;17.20;99.90;;;;;;4976355;28;20158;-36
2023/07/06 07:26:22;;;;;;;9.15;3.38;;;17.30;99.90;;;;;;4957683;28;20205;-35
2023/07/06 07:28:50;;;;;;;13.30;3.20;;;17.50;99.90;;;;;;4982796;28;20053;-35
2023/07/06 07:31:17;;;;;;;8.32;2.88;;;17.60;99.90;;;;;;4980264;28;20361;-37
2023/07/06 07:33:44;;;;;;;7.13;2.90;;;17.70;99.90;;;;;;4981980;28;20051;-35
2023/07/06 07:36:12;;;;;;;7.95;2.97;;;17.80;99.90;;;;;;4981069;28;20054;-35
2023/07/06 07:38:38;;;;;;;12.82;3.83;;;17.80;99.90;;;;;;4968354;28;20137;-35
2023/07/06 07:41:06;;;;;;;9.98;3.47;;;17.70;99.90;;;;;;4961299;28;20079;-36
2023/07/06 07:43:35;;;;;;;6.25;3.17;;;17.80;99.90;;;;;;4961611;28;20061;-35
2023/07/06 07:46:06;;;;;;;10.63;3.22;;;17.80;99.90;;;;;;4960656;28;20524;-35
2023/07/06 07:48:33;;;;;;;10.18;3.75;;;17.80;99.90;;;;;;4960794;28;20101;-35
2023/07/06 07:51:02;;;;;;;12.23;2.95;;;17.80;99.90;;;;;;4956685;28;20504;-35
2023/07/06 07:53:32;;;;;;;9.02;3.78;;;17.90;99.90;;;;;;4962737;28;20110;-35
2023/07/06 07:55:58;;;;;;;11.50;3.40;;;18.00;99.90;;;;;;4962192;28;20451;-35
2023/07/06 07:58:23;;;;;;;8.18;3.30;;;18.10;99.90;;;;;;4966297;28;20046;-35
2023/07/06 08:00:56;;;;;;;6.88;2.75;;;18.20;99.90;;;;;;4961594;28;20055;-35
2023/07/06 08:03:23;;;;;;;5.63;2.60;;;18.40;99.90;;;;;;4964582;28;20094;-35
2023/07/06 08:05:52;;;;;;;6.07;2.60;;;18.40;99.90;;;;;;4962549;28;20480;-36
2023/07/06 08:08:18;;;;;;;9.38;2.90;;;18.40;99.90;;;;;;4967265;28;20064;-35
2023/07/06 08:10:45;;;;;;;7.80;2.90;;;18.40;99.90;;;;;;4961515;28;20057;-35
2023/07/06 08:13:11;;;;;;;8.73;2.83;;;18.40;99.90;;;;;;4961330;28;20066;-35
2023/07/06 08:15:38;;;;;;;5.95;2.28;;;18.50;99.90;;;;;;4961287;28;20043;-35
2023/07/06 08:18:06;;;;;;;7.40;2.47;;;18.60;99.90;;;;;;4966679;28;20058;-36
2023/07/06 08:20:35;;;;;;;8.35;3.30;;;18.60;99.90;;;;;;4965705;28;20074;-36
2023/07/06 08:23:02;;;;;;;5.03;2.58;;;18.50;99.90;;;;;;4966320;28;20607;-35
2023/07/06 08:25:33;;;;;;;5.40;2.67;;;18.50;99.90;;;;;;4963270;28;20054;-36
2023/07/06 08:28:01;;;;;;;7.07;2.90;;;18.60;99.90;;;;;;4966327;28;20054;-35
2023/07/06 08:30:27;;;;;;;6.22;3.22;;;18.70;99.90;;;;;;4961282;28;20054;-36
2023/07/06 08:32:52;;;;;;;5.57;2.25;;;18.80;99.90;;;;;;4972519;28;20047;-36
2023/07/06 08:35:18;;;;;;;7.00;2.50;;;18.90;99.90;;;;;;4966876;28;20049;-36
2023/07/06 08:37:44;;;;;;;9.20;3.05;;;18.80;99.90;;;;;;4969636;28;20137;-36
2023/07/06 08:40:14;;;;;;;6.55;2.13;;;18.80;99.90;;;;;;4965334;28;20500;-35
2023/07/06 08:42:43;;;;;;;5.65;1.90;;;18.80;99.90;;;;;;4966367;28;20053;-36
2023/07/06 08:45:19;;;;;;;5.03;2.08;;;18.80;99.90;;;;;;4963569;28;20047;-36
2023/07/06 08:47:48;;;;;;;3.88;1.70;;;18.80;99.90;;;;;;4966228;28;20465;-36
2023/07/06 08:50:15;;;;;;;5.35;1.75;;;18.90;99.90;;;;;;4963980;28;20481;-35
2023/07/06 08:52:42;;;;;;;5.53;1.98;;;19.00;99.90;;;;;;4961535;28;20054;-35
2023/07/06 08:55:17;;;;;;;8.13;1.80;;;18.90;99.90;;;;;;4964592;28;20050;-35
2023/07/06 08:57:49;;;;;;;4.53;1.60;;;19.00;99.90;;;;;;4960041;28;20082;-35
2023/07/06 09:00:21;;;;;;;4.13;1.42;;;19.20;99.90;;;;;;4965055;28;20055;-35
2023/07/06 09:02:55;;;;;;;13.57;2.60;;;19.20;99.90;;;;;;4970604;28;20058;-35
2023/07/06 09:05:21;;;;;;;3.17;1.33;;;19.10;99.90;;;;;;4963901;28;20085;-36
2023/07/06 09:07:48;;;;;;;4.68;1.35;;;19.10;99.90;;;;;;4965460;28;20046;-36
2023/07/06 09:10:17;;;;;;;9.73;1.80;;;19.30;99.90;;;;;;4970824;28;20050;-36
2023/07/06 09:12:43;;;;;;;5.45;1.90;;;19.50;99.90;;;;;;4966699;28;20058;-36
2023/07/06 09:15:13;;;;;;;4.55;1.35;;;19.50;99.90;;;;;;4966182;28;20051;-35
2023/07/06 09:17:52;;;;;;;3.95;1.75;;;19.50;99.90;;;;;;4964748;28;20061;-35
2023/07/06 09:20:20;;;;;;;5.53;1.83;;;19.50;99.90;;;;;;4982032;28;20105;-36
2023/07/06 09:22:48;;;;;;;4.22;1.85;;;19.50;99.90;;;;;;4981213;28;20117;-35
2023/07/06 09:25:17;;;;;;;4.30;1.52;;;19.40;99.90;;;;;;4965879;28;20077;-36
2023/07/06 09:27:56;;;;;;;3.75;1.67;;;19.20;99.90;;;;;;4954988;28;20145;-35
2023/07/06 09:30:25;;;;;;;4.82;1.92;;;19.20;99.90;;;;;;4961869;28;20157;-36
2023/07/06 09:32:54;;;;;;;2.45;1.38;;;19.10;99.90;;;;;;4959510;28;20109;-35
2023/07/06 09:35:20;;;;;;;3.92;1.20;;;19.10;99.90;;;;;;4962874;28;20053;-36
2023/07/06 09:37:51;;;;;;;9.30;2.10;;;19.20;99.90;;;;;;4964337;28;20497;-36
2023/07/06 09:40:17;;;;;;;6.40;1.50;;;19.20;99.90;;;;;;4958220;28;20050;-36
2023/07/06 09:42:48;;;;;;;5.40;1.45;;;19.20;99.90;;;;;;4961754;28;20089;-35
2023/07/06 09:45:25;;;;;;;5.70;1.90;;;19.20;99.90;;;;;;4963187;28;20515;-35
2023/07/06 09:47:55;;;;;;;4.93;1.40;;;19.00;99.90;;;;;;4963137;28;20054;-35
2023/07/06 09:50:26;;;;;;;3.80;1.15;;;18.90;99.90;;;;;;4962042;28;20058;-35
2023/07/06 09:52:54;;;;;;;6.40;1.63;;;18.90;99.90;;;;;;4961392;28;20047;-36
2023/07/06 09:55:29;;;;;;;3.03;1.42;;;18.90;99.90;;;;;;4973906;28;20180;-35
2023/07/06 09:57:59;;;;;;;4.43;1.25;;;19.00;99.90;;;;;;4962814;28;20046;-35
2023/07/06 10:00:36;;;;;;;4.40;1.08;;;19.20;99.90;;;;;;4967946;28;20049;-35
2023/07/06 10:03:33;;;;;;;3.95;1.25;;;19.30;99.90;;;;;;4961175;28;20043;-35
2023/07/06 10:06:03;;;;;;;6.22;2.15;;;19.30;99.90;;;;;;4980176;28;20050;-35
2023/07/06 10:08:50;;;;;;;4.95;1.23;;;19.20;99.90;;;;;;4975122;28;20069;-35
2023/07/06 10:11:38;;;;;;;3.95;1.08;;;19.20;99.90;;;;;;4964186;28;20582;-35
2023/07/06 10:14:13;;;;;;;4.60;1.00;;;19.30;99.90;;;;;;4959455;28;20042;-35
2023/07/06 10:17:25;;;;;;;5.25;1.23;;;19.50;99.90;;;;;;4968583;28;20133;-35
2023/07/06 10:19:58;;;;;;;2.90;1.27;;;19.90;99.90;;;;;;4974328;28;20097;-35
2023/07/06 10:22:33;;;;;;;4.68;1.20;;;20.10;99.90;;;;;;4960464;28;20079;-35
2023/07/06 10:25:18;;;;;;;3.05;1.40;;;20.30;99.90;;;;;;4960954;28;20054;-35
2023/07/06 10:27:53;;;;;;;3.55;1.25;;;20.30;99.90;;;;;;4958951;28;20093;-35
2023/07/06 10:30:45;;;;;;;3.00;0.90;;;20.40;99.90;;;;;;4961507;28;20044;-35
2023/07/06 10:33:33;;;;;;;3.40;0.82;;;20.30;99.90;;;;;;4979551;28;20053;-36
2023/07/06 10:35:59;;;;;;;2.58;0.60;;;20.50;99.90;;;;;;4960978;28;20047;-36
2023/07/06 10:38:25;;;;;;;3.17;0.85;;;20.60;99.90;;;;;;4959024;28;20057;-36
2023/07/06 10:41:14;;;;;;;3.83;0.60;;;20.90;99.90;;;;;;4972871;28;20046;-36
2023/07/06 10:43:42;;;;;;;2.60;0.70;;;21.20;99.90;;;;;;4962600;28;20166;-36
2023/07/06 10:46:27;;;;;;;3.22;1.00;;;21.10;99.90;;;;;;4959252;28;20046;-36
2023/07/06 10:48:57;;;;;;;2.05;0.73;;;21.10;99.90;;;;;;4965692;28;20097;-36
2023/07/06 10:51:27;;;;;;;1.95;0.70;;;20.80;99.90;;;;;;4960228;28;20141;-36
2023/07/06 10:54:23;;;;;;;3.40;0.70;;;20.70;99.90;;;;;;4962072;28;20796;-35
2023/07/06 10:57:10;;;;;;;2.15;0.90;;;20.60;99.90;;;;;;4972829;28;20054;-35
2023/07/06 10:59:38;;;;;;;3.60;1.17;;;20.40;99.90;;;;;;4959296;28;20143;-35
2023/07/06 11:02:19;;;;;;;3.00;0.90;;;20.30;99.90;;;;;;4962364;28;20086;-35
2023/07/06 11:05:15;;;;;;;4.70;1.10;;;20.30;99.90;;;;;;4975251;28;20047;-35
2023/07/06 11:07:44;;;;;;;4.40;1.20;;;20.30;99.90;;;;;;4980792;28;20077;-44
2023/07/06 11:10:19;;;;;;;4.25;1.63;;;20.60;99.90;;;;;;4974395;28;20055;-35
2023/07/06 11:13:19;;;;;;;6.97;1.70;;;21.00;99.90;;;;;;4975294;28;20058;-35
2023/07/06 11:15:47;;;;;;;1.83;0.80;;;21.50;99.90;;;;;;4977331;28;20078;-33
2023/07/06 11:18:18;;;;;;;3.60;0.95;;;21.70;99.90;;;;;;4963228;28;20070;-36
2023/07/06 11:20:52;;;;;;;3.38;1.00;;;21.70;99.90;;;;;;4961186;28;20101;-36
2023/07/06 11:23:30;;;;;;;3.53;0.95;;;21.60;99.90;;;;;;4964572;28;20058;-33
2023/07/06 11:25:56;;;;;;;7.57;1.40;;;21.50;99.90;;;;;;4968717;28;20051;-35
2023/07/06 11:28:24;;;;;;;3.92;1.27;;;21.50;99.90;;;;;;4957768;28;20081;-33
2023/07/06 11:31:17;;;;;;;2.75;0.85;;;21.70;99.90;;;;;;4977469;28;20062;-35
2023/07/06 11:34:03;;;;;;;;;;;22.00;99.90;;;;;;4970097;28;20436;-35
2023/07/06 11:36:39;;;;;;;3.95;1.08;;;22.20;99.90;;;;;;4970207;28;20402;-34
2023/07/06 11:39:43;;;;;;;3.22;1.63;;;22.10;99.90;;;;;;4983752;28;20046;-34
2023/07/06 11:43:05;;;;;;;5.55;1.55;;;22.00;99.90;;;;;;4966344;28;20066;-34
2023/07/06 11:45:54;;;;;;;6.57;1.30;;;21.80;99.90;;;;;;4950234;28;20062;-34
2023/07/06 11:48:45;;;;;;;5.32;1.60;;;21.60;99.90;;;;;;4965936;28;21765;-34
2023/07/06 11:51:11;;;;;;;2.40;1.35;;;21.30;99.90;;;;;;4962171;28;20047;-34
2023/07/06 11:53:44;;;;;;;4.30;1.10;;;21.00;99.90;;;;;;4966320;28;20181;-34
2023/07/06 11:56:32;;;;;;;4.18;1.95;;;20.70;99.90;;;;;;4964657;28;20054;-33
2023/07/06 11:59:04;;;;;;;3.35;1.20;;;20.50;99.90;;;;;;4960318;28;20054;-34
2023/07/06 12:01:40;;;;;;;3.13;1.20;;;20.30;99.90;;;;;;4961068;28;20173;-34
2023/07/06 12:04:20;;;;;;;3.65;1.40;;;20.20;99.90;;;;;;4964815;28;20050;-34
2023/07/06 12:06:48;;;;;;;4.85;1.38;;;20.10;99.90;;;;;;4965400;28;20055;-33
2023/07/06 12:09:24;;;;;;;3.63;1.80;;;20.10;99.90;;;;;;4965281;28;20065;-33
2023/07/06 12:11:53;;;;;;;6.50;1.67;;;20.10;99.90;;;;;;4956405;28;20500;-33
2023/07/06 12:14:20;;;;;;;5.18;1.08;;;20.00;99.90;;;;;;4965860;28;20085;-34
2023/07/06 12:16:49;;;;;;;6.60;1.42;;;20.10;99.90;;;;;;4962431;28;20062;-33
2023/07/06 12:19:17;;;;;;;4.00;1.17;;;20.10;99.90;;;;;;4965708;28;20047;-38
2023/07/06 12:21:50;;;;;;;4.07;1.10;;;20.20;99.90;;;;;;4955138;28;20500;-33
2023/07/06 12:24:20;;;;;;;2.38;1.00;;;20.20;99.90;;;;;;4963753;28;20051;-33
2023/07/06 12:26:49;;;;;;;7.00;1.30;;;20.30;99.90;;;;;;4956315;28;20518;-33
2023/07/06 12:29:16;;;;;;;2.40;0.90;;;20.40;99.90;;;;;;4969498;28;20582;-33
2023/07/06 12:31:44;;;;;;;2.35;0.77;;;20.40;99.90;;;;;;4964799;28;20109;-33
2023/07/06 12:34:17;;;;;;;3.28;1.13;;;20.40;99.90;;;;;;4965268;28;20050;-33
2023/07/06 12:36:44;;;;;;;2.58;1.00;;;20.40;99.90;;;;;;4971141;28;20058;-33
2023/07/06 12:39:15;;;;;;;4.25;1.13;;;20.40;99.90;;;;;;4972929;28;20055;-34
2023/07/06 12:41:41;;;;;;;4.50;0.98;;;20.30;99.90;;;;;;4971391;28;20082;-34
2023/07/06 12:44:17;;;;;;;4.32;1.23;;;20.30;99.90;;;;;;4975874;28;20046;-33
2023/07/06 12:46:51;;;;;;;5.47;1.60;;;20.30;99.90;;;;;;4985158;28;20049;-33
2023/07/06 12:49:22;;;;;;;3.95;1.13;;;20.30;99.90;;;;;;4982075;28;20061;-34
2023/07/06 12:51:54;;;;;;;6.88;1.70;;;20.40;99.90;;;;;;4972293;28;20224;-33
2023/07/06 12:54:28;;;;;;;2.90;1.30;;;20.50;99.90;;;;;;4962886;28;20054;-34
2023/07/06 12:57:15;;;;;;;4.43;1.50;;;20.50;99.90;;;;;;4957714;28;20485;-34
2023/07/06 12:59:41;;;;;;;4.05;1.15;;;20.60;99.90;;;;;;4962013;28;20050;-33
2023/07/06 13:02:21;;;;;;;5.28;1.52;;;20.80;99.90;;;;;;4960847;28;20383;-34
2023/07/06 13:04:48;;;;;;;5.40;1.48;;;20.90;99.90;;;;;;4961054;28;20042;-33
2023/07/06 13:07:17;;;;;;;9.23;1.90;;;21.10;99.90;;;;;;4958783;28;20055;-33
2023/07/06 13:09:43;;;;;;;7.38;2.03;;;21.20;99.90;;;;;;4958796;28;20531;-33
2023/07/06 13:12:20;;;;;;;4.00;1.95;;;21.10;99.90;;;;;;4956404;28;20059;-33
2023/07/06 13:14:48;;;;;;;4.68;1.73;;;21.00;99.90;;;;;;4960516;28;20056;-34